createdAt,value
2023-05-12T00:00:33.192Z,96.32
2023-05-12T00:03:03.792Z,96.09
2023-05-12T00:05:32.579Z,95.93
2023-05-12T00:08:01.461Z,96.96
2023-05-12T00:10:31.476Z,96.53
2023-05-12T00:13:00.233Z,97.17
2023-05-12T00:15:29.122Z,97.02
2023-05-12T00:17:58.099Z,96.70
2023-05-12T00:20:27.042Z,97.27
2023-05-12T00:22:55.591Z,96.48
2023-05-12T00:25:24.539Z,97.43
2023-05-12T00:27:54.786Z,97.09
2023-05-12T00:30:23.916Z,97.39
2023-05-12T00:32:52.898Z,96.91
2023-05-12T00:35:22.131Z,97.51
2023-05-12T00:37:50.681Z,97.29
2023-05-12T00:40:19.877Z,97.77
2023-05-12T00:42:49.764Z,97.76
2023-05-12T00:45:20.651Z,98.33
2023-05-12T00:47:49.678Z,98.06
2023-05-12T00:50:19.256Z,97.48
2023-05-12T00:52:48.307Z,97.67
2023-05-12T00:55:17.526Z,96.91
2023-05-12T00:57:47.359Z,97.70
2023-05-12T01:00:20.111Z,98.35
2023-05-12T01:02:49.990Z,98.67
2023-05-12T01:05:19.240Z,98.83
2023-05-12T01:07:48.519Z,99.03
2023-05-12T01:10:21.101Z,98.75
2023-05-12T01:12:50.309Z,100.00
2023-05-12T01:15:21.574Z,99.62
2023-05-12T01:17:52.920Z,99.38
2023-05-12T01:20:24.464Z,99.58
2023-05-12T01:22:53.446Z,100.00
2023-05-12T01:25:24.892Z,99.90
2023-05-12T01:27:55.530Z,100.00
2023-05-12T01:30:25.453Z,100.00
2023-05-12T01:32:54.739Z,100.00
2023-05-12T01:35:23.804Z,100.00
2023-05-12T01:37:58.967Z,100.00
2023-05-12T01:40:27.871Z,100.00
2023-05-12T01:43:00.233Z,100.00
2023-05-12T01:45:33.518Z,100.00
2023-05-12T01:48:02.465Z,100.00
2023-05-12T01:50:31.440Z,100.00
2023-05-12T01:53:01.276Z,100.00
2023-05-12T01:55:30.291Z,100.00
2023-05-12T01:58:01.375Z,100.00
2023-05-12T02:00:30.619Z,100.00
2023-05-12T02:03:01.547Z,100.00
2023-05-12T02:05:31.451Z,100.00
2023-05-12T02:08:00.701Z,100.00
2023-05-12T02:10:29.242Z,100.00
2023-05-12T02:12:58.789Z,100.00
2023-05-12T02:15:30.938Z,100.00
2023-05-12T02:17:59.888Z,100.00
2023-05-12T02:20:29.810Z,100.00
2023-05-12T02:22:58.793Z,100.00
2023-05-12T02:25:27.241Z,100.00
2023-05-12T02:27:56.243Z,100.00
2023-05-12T02:30:25.535Z,100.00
2023-05-12T02:32:56.050Z,100.00
2023-05-12T02:35:25.147Z,100.00
2023-05-12T02:37:53.649Z,100.00
2023-05-12T02:40:22.561Z,100.00
2023-05-12T02:42:51.591Z,100.00
2023-05-12T02:45:20.502Z,100.00
2023-05-12T02:47:49.734Z,100.00
2023-05-12T02:50:20.830Z,100.00
2023-05-12T02:52:49.571Z,100.00
2023-05-12T02:55:19.815Z,100.00
2023-05-12T02:57:48.694Z,100.00
2023-05-12T03:00:18.158Z,100.00
2023-05-12T03:02:47.362Z,100.00
2023-05-12T03:05:16.275Z,100.00
2023-05-12T03:07:46.383Z,100.00
2023-05-12T03:10:15.375Z,100.00
2023-05-12T03:12:44.428Z,100.00
2023-05-12T03:15:13.711Z,100.00
2023-05-12T03:17:43.051Z,100.00
2023-05-12T03:20:12.687Z,100.00
2023-05-12T03:22:41.269Z,100.00
2023-05-12T03:25:13.124Z,100.00
2023-05-12T03:27:42.005Z,100.00
2023-05-12T03:30:12.516Z,100.00
2023-05-12T03:32:41.587Z,100.00
2023-05-12T03:35:12.143Z,100.00
2023-05-12T03:37:40.961Z,100.00
2023-05-12T03:40:18.476Z,100.00
2023-05-12T03:42:49.134Z,100.00
2023-05-12T03:45:20.723Z,100.00
2023-05-12T03:47:50.688Z,100.00
2023-05-12T03:50:20.509Z,100.00
2023-05-12T03:52:49.136Z,100.00
2023-05-12T03:55:19.630Z,100.00
2023-05-12T03:57:49.262Z,100.00
2023-05-12T04:00:19.987Z,100.00
2023-05-12T04:02:49.064Z,99.87
2023-05-12T04:05:18.247Z,99.71
2023-05-12T04:07:46.709Z,98.45
2023-05-12T04:10:15.572Z,98.89
2023-05-12T04:12:45.861Z,98.13
2023-05-12T04:15:15.151Z,97.47
2023-05-12T04:17:44.017Z,97.45
2023-05-12T04:20:14.382Z,96.15
2023-05-12T04:22:44.324Z,96.08
2023-05-12T04:25:13.202Z,96.25
2023-05-12T04:27:42.849Z,95.04
2023-05-12T04:30:13.469Z,94.26
2023-05-12T04:32:44.200Z,94.68
2023-05-12T04:35:13.474Z,93.73
2023-05-12T04:37:42.733Z,93.16
2023-05-12T04:40:12.142Z,92.71
2023-05-12T04:42:41.060Z,92.44
2023-05-12T04:45:13.744Z,92.58
2023-05-12T04:47:43.175Z,92.20
2023-05-12T04:50:12.755Z,92.13
2023-05-12T04:52:41.242Z,91.93
2023-05-12T04:55:11.008Z,90.85
2023-05-12T04:57:41.529Z,91.42
2023-05-12T05:00:15.132Z,90.68
2023-05-12T05:02:46.107Z,90.75
2023-05-12T05:05:15.188Z,91.04
2023-05-12T05:07:43.651Z,89.85
2023-05-12T05:10:13.592Z,90.26
2023-05-12T05:12:44.787Z,88.62
2023-05-12T05:15:15.984Z,88.58
2023-05-12T05:17:49.337Z,87.91
2023-05-12T05:20:19.813Z,87.18
2023-05-12T05:22:49.384Z,86.75
2023-05-12T05:25:18.687Z,86.83
2023-05-12T05:27:47.739Z,86.84
2023-05-12T05:30:18.156Z,87.30
2023-05-12T05:32:47.506Z,87.30
2023-05-12T05:35:16.790Z,86.11
2023-05-12T05:37:50.869Z,86.96
2023-05-12T05:40:19.862Z,85.85
2023-05-12T05:42:49.156Z,85.03
2023-05-12T05:45:19.816Z,85.50
2023-05-12T05:47:51.873Z,84.89
2023-05-12T05:50:21.320Z,85.62
2023-05-12T05:52:49.853Z,84.26
2023-05-12T05:55:18.860Z,85.03
2023-05-12T05:57:48.396Z,83.81
2023-05-12T06:00:19.486Z,84.08
2023-05-12T06:02:52.873Z,83.65
2023-05-12T06:05:23.627Z,83.92
2023-05-12T06:07:52.178Z,83.99
2023-05-12T06:10:22.767Z,83.24
2023-05-12T06:12:51.823Z,83.17
2023-05-12T06:15:22.711Z,82.58
2023-05-12T06:17:51.998Z,81.59
2023-05-12T06:20:23.318Z,81.18
2023-05-12T06:22:51.889Z,79.41
2023-05-12T06:25:21.092Z,79.52
2023-05-12T06:27:52.954Z,81.53
2023-05-12T06:30:23.490Z,78.68
2023-05-12T06:32:56.730Z,78.98
2023-05-12T06:35:25.646Z,78.67
2023-05-12T06:37:54.151Z,77.76
2023-05-12T06:40:23.070Z,76.71
2023-05-12T06:42:52.024Z,77.31
2023-05-12T06:45:24.610Z,75.13
2023-05-12T06:47:53.747Z,74.88
2023-05-12T06:50:22.649Z,75.91
2023-05-12T06:52:53.999Z,75.08
2023-05-12T06:55:23.495Z,74.13
2023-05-12T06:57:55.930Z,73.49
2023-05-12T07:00:27.629Z,76.10
2023-05-12T07:02:56.620Z,74.24
2023-05-12T07:05:25.632Z,75.00
2023-05-12T07:07:54.191Z,73.93
2023-05-12T07:10:23.237Z,73.08
2023-05-12T07:12:53.247Z,73.27
2023-05-12T07:15:22.560Z,73.11
2023-05-12T07:17:55.758Z,73.33
2023-05-12T07:20:25.184Z,71.00
2023-05-12T07:22:54.901Z,70.27
2023-05-12T07:25:23.936Z,68.06
2023-05-12T07:27:53.009Z,68.84
2023-05-12T07:30:22.631Z,67.64
2023-05-12T07:32:53.347Z,65.98
2023-05-12T07:35:22.794Z,66.13
2023-05-12T07:37:51.442Z,64.32
2023-05-12T07:40:20.452Z,61.72
2023-05-12T07:42:49.330Z,62.46
2023-05-12T07:45:23.087Z,62.25
2023-05-12T07:47:53.615Z,63.64
2023-05-12T07:50:22.643Z,60.28
2023-05-12T07:52:52.854Z,60.85
2023-05-12T07:55:23.125Z,57.21
2023-05-12T07:57:51.853Z,57.33
2023-05-12T08:00:21.068Z,58.95
2023-05-12T08:02:50.255Z,58.25
2023-05-12T08:05:20.971Z,56.43
2023-05-12T08:07:49.839Z,54.64
2023-05-12T08:10:19.394Z,54.52
2023-05-12T08:12:48.400Z,53.24
2023-05-12T08:15:17.277Z,51.51
2023-05-12T08:17:46.252Z,49.32
2023-05-12T08:20:15.696Z,47.75
2023-05-12T08:22:47.998Z,43.95
2023-05-12T08:25:16.924Z,45.02
2023-05-12T08:27:45.842Z,44.16
2023-05-12T08:30:16.007Z,47.21
2023-05-12T08:32:44.925Z,43.40
2023-05-12T08:35:14.004Z,43.07
2023-05-12T08:37:45.203Z,42.81
2023-05-12T08:40:19.385Z,41.45
2023-05-12T08:42:55.887Z,42.64
2023-05-12T08:45:25.019Z,43.10
2023-05-12T08:47:55.136Z,42.34
2023-05-12T08:50:24.727Z,42.39
2023-05-12T08:52:53.613Z,45.66
2023-05-12T08:55:29.539Z,42.85
2023-05-12T08:58:01.399Z,41.10
2023-05-12T09:00:31.205Z,41.38
2023-05-12T09:03:00.877Z,42.11
2023-05-12T09:05:31.095Z,42.31
2023-05-12T09:07:59.389Z,41.74
2023-05-12T09:10:34.578Z,40.43
2023-05-12T09:13:05.935Z,39.39
2023-05-12T09:15:37.715Z,38.96
2023-05-12T09:18:06.643Z,38.73
2023-05-12T09:20:35.186Z,38.44
2023-05-12T09:23:14.753Z,38.83
2023-05-12T09:25:44.806Z,38.42
2023-05-12T09:28:15.686Z,37.43
2023-05-12T09:30:47.123Z,37.67
2023-05-12T09:33:16.188Z,38.26
2023-05-12T09:35:46.815Z,36.76
2023-05-12T09:38:15.794Z,37.80
2023-05-12T09:40:45.306Z,37.35
2023-05-12T09:43:15.506Z,36.31
2023-05-12T09:45:46.716Z,36.88
2023-05-12T09:48:15.439Z,37.15
2023-05-12T09:50:47.707Z,35.64
2023-05-12T09:53:18.402Z,33.57
2023-05-12T09:55:49.744Z,31.49
2023-05-12T09:58:20.790Z,30.34
2023-05-12T10:01:17.763Z,29.58
2023-05-12T10:03:41.399Z,27.28
2023-05-12T10:06:14.549Z,25.75
2023-05-12T10:08:54.983Z,27.52
2023-05-12T10:11:24.937Z,26.17
2023-05-12T10:13:53.519Z,26.75
2023-05-12T10:16:22.797Z,25.42
2023-05-12T10:18:51.564Z,24.20
2023-05-12T10:21:20.433Z,24.72
2023-05-12T10:23:49.128Z,23.33
2023-05-12T10:26:19.024Z,22.94
2023-05-12T10:28:48.810Z,22.38
2023-05-12T10:31:18.198Z,23.05
2023-05-12T10:33:57.722Z,25.13
2023-05-12T10:36:26.656Z,25.34
2023-05-12T10:38:56.237Z,26.70
2023-05-12T10:41:31.743Z,25.87
2023-05-12T10:44:01.621Z,24.45
2023-05-12T10:46:30.648Z,24.10
2023-05-12T10:49:01.017Z,24.24
2023-05-12T10:51:31.193Z,23.37
2023-05-12T10:54:01.129Z,25.46
2023-05-12T10:56:31.062Z,29.07
2023-05-12T10:59:14.515Z,28.57
2023-05-12T11:01:44.558Z,26.91
2023-05-12T11:04:15.305Z,25.11
2023-05-12T11:06:46.755Z,24.35
2023-05-12T11:09:17.513Z,24.94
2023-05-12T11:11:47.645Z,22.94
2023-05-12T11:14:18.171Z,25.69
2023-05-12T11:16:47.224Z,24.73
2023-05-12T11:19:15.721Z,24.83
2023-05-12T11:21:44.379Z,24.86
2023-05-12T11:24:13.642Z,24.15
2023-05-12T11:26:44.577Z,22.71
2023-05-12T11:29:13.080Z,21.90
2023-05-12T11:31:42.757Z,20.53
2023-05-12T11:34:13.594Z,21.62
2023-05-12T11:36:43.911Z,25.10
2023-05-12T11:39:17.622Z,25.98
2023-05-12T11:41:46.214Z,23.86
2023-05-12T11:44:18.370Z,22.38
2023-05-12T11:46:58.381Z,21.69
2023-05-12T11:49:27.223Z,19.76
2023-05-12T11:51:56.888Z,20.40
2023-05-12T11:54:26.117Z,21.26
2023-05-12T11:56:55.641Z,20.54
2023-05-12T11:59:28.232Z,19.74
2023-05-12T12:01:58.373Z,18.43
2023-05-12T12:04:36.770Z,18.44
2023-05-12T12:07:06.410Z,19.23
2023-05-12T12:09:36.419Z,21.32
2023-05-12T12:12:06.844Z,23.47
2023-05-12T12:14:38.433Z,23.25
2023-05-12T12:17:08.575Z,25.17
2023-05-12T12:19:37.007Z,22.18
2023-05-12T12:22:06.037Z,22.03
2023-05-12T12:24:34.622Z,22.47
2023-05-12T12:27:04.647Z,21.05
2023-05-12T12:29:33.359Z,20.75
2023-05-12T12:32:02.561Z,19.88
2023-05-12T12:34:32.713Z,19.52
2023-05-12T12:37:01.456Z,21.14
2023-05-12T12:39:30.023Z,20.82
2023-05-12T12:41:59.006Z,20.31
2023-05-12T12:44:27.704Z,22.45
2023-05-12T12:46:55.903Z,23.59
2023-05-12T12:49:24.562Z,22.74
2023-05-12T12:51:55.484Z,23.47
2023-05-12T12:54:27.369Z,24.00
2023-05-12T12:56:56.679Z,24.32
2023-05-12T12:59:25.145Z,23.78
2023-05-12T13:01:53.657Z,23.67
2023-05-12T13:04:23.137Z,22.63
2023-05-12T13:06:51.909Z,22.39
2023-05-12T13:09:21.893Z,21.71
2023-05-12T13:11:50.516Z,21.50
2023-05-12T13:14:19.047Z,23.21
2023-05-12T13:16:47.229Z,23.26
2023-05-12T13:19:15.763Z,24.17
2023-05-12T13:21:44.338Z,22.28
2023-05-12T13:24:12.914Z,22.40
2023-05-12T13:26:42.846Z,23.01
2023-05-12T13:29:11.126Z,23.24
2023-05-12T13:31:41.248Z,23.90
2023-05-12T13:34:09.778Z,23.26
2023-05-12T13:36:38.594Z,22.83
2023-05-12T13:39:07.187Z,22.60
2023-05-12T13:41:36.371Z,22.77
2023-05-12T13:44:06.371Z,23.12
2023-05-12T13:46:35.493Z,22.37
2023-05-12T13:49:04.159Z,23.15
2023-05-12T13:51:33.060Z,24.01
2023-05-12T13:54:01.493Z,23.42
2023-05-12T13:56:30.165Z,23.49
2023-05-12T13:58:58.766Z,25.02
2023-05-12T14:01:28.324Z,23.97
2023-05-12T14:03:59.312Z,24.31
2023-05-12T14:06:28.045Z,23.94
2023-05-12T14:08:56.970Z,25.11
2023-05-12T14:11:25.492Z,25.24
2023-05-12T14:13:53.723Z,25.28
2023-05-12T14:16:22.311Z,25.39
2023-05-12T14:18:52.316Z,25.30
2023-05-12T14:21:20.991Z,26.45
2023-05-12T14:23:51.111Z,27.40
2023-05-12T14:26:21.524Z,27.82
2023-05-12T14:28:49.801Z,27.36
2023-05-12T14:31:18.504Z,27.63
2023-05-12T14:33:47.161Z,28.41
2023-05-12T14:36:17.154Z,26.94
2023-05-12T14:38:45.796Z,27.14
2023-05-12T14:41:14.450Z,26.06
2023-05-12T14:43:42.544Z,25.50
2023-05-12T14:46:12.083Z,26.61
2023-05-12T14:48:40.743Z,27.09
2023-05-12T14:51:09.223Z,27.83
2023-05-12T14:53:40.505Z,26.56
2023-05-12T14:56:09.128Z,26.19
2023-05-12T14:58:37.230Z,25.34
2023-05-12T15:01:08.713Z,24.65
2023-05-12T15:03:38.660Z,24.62
2023-05-12T15:06:08.470Z,24.93
2023-05-12T15:08:37.170Z,26.05
2023-05-12T15:11:07.289Z,25.58
2023-05-12T15:13:35.627Z,25.12
2023-05-12T15:16:04.752Z,24.39
2023-05-12T15:18:33.342Z,24.70
2023-05-12T15:21:01.802Z,26.47
2023-05-12T15:23:30.531Z,27.69
2023-05-12T15:26:03.273Z,27.90
2023-05-12T15:28:36.671Z,26.98
2023-05-12T15:31:05.824Z,27.62
2023-05-12T15:33:34.612Z,28.03
2023-05-12T15:36:03.414Z,27.66
2023-05-12T15:38:32.576Z,26.59
2023-05-12T15:41:01.740Z,25.83
2023-05-12T15:43:30.618Z,24.48
2023-05-12T15:46:00.737Z,24.10
2023-05-12T15:48:30.200Z,24.54
2023-05-12T15:50:58.676Z,25.03
2023-05-12T15:53:27.337Z,25.52
2023-05-12T15:56:00.956Z,27.03
2023-05-12T15:58:29.727Z,26.52
2023-05-12T16:00:58.431Z,26.67
2023-05-12T16:03:28.853Z,26.85
2023-05-12T16:05:57.559Z,28.53
2023-05-12T16:08:26.942Z,29.11
2023-05-12T16:10:56.281Z,29.11
2023-05-12T16:13:25.003Z,29.93
2023-05-12T16:15:53.679Z,30.42
2023-05-12T16:18:22.393Z,28.77
2023-05-12T16:20:52.399Z,28.52
2023-05-12T16:23:20.905Z,27.18
2023-05-12T16:25:49.221Z,26.01
2023-05-12T16:28:17.798Z,25.27
2023-05-12T16:30:46.501Z,25.73
2023-05-12T16:33:15.146Z,25.18
2023-05-12T16:35:43.861Z,26.11
2023-05-12T16:38:13.766Z,26.21
2023-05-12T16:40:41.915Z,26.11
2023-05-12T16:43:10.411Z,26.28
2023-05-12T16:45:39.145Z,27.46
2023-05-12T16:48:07.901Z,27.97
2023-05-12T16:50:36.471Z,27.84
2023-05-12T16:53:05.080Z,27.76
2023-05-12T16:55:34.820Z,26.95
2023-05-12T16:58:03.430Z,27.64
2023-05-12T17:00:31.929Z,26.87
2023-05-12T17:03:02.370Z,26.89
2023-05-12T17:05:32.447Z,26.76
2023-05-12T17:08:00.953Z,28.30
2023-05-12T17:10:29.439Z,28.34
2023-05-12T17:12:59.670Z,28.46
2023-05-12T17:15:28.404Z,29.29
2023-05-12T17:17:57.006Z,29.94
2023-05-12T17:20:25.768Z,29.76
2023-05-12T17:22:53.867Z,29.98
2023-05-12T17:25:23.457Z,29.48
2023-05-12T17:27:52.161Z,30.04
2023-05-12T17:30:22.949Z,31.01
2023-05-12T17:32:51.799Z,32.62
2023-05-12T17:35:20.681Z,34.61
2023-05-12T17:37:49.061Z,35.60
2023-05-12T17:40:18.185Z,36.27
2023-05-12T17:42:46.847Z,36.82
2023-05-12T17:45:15.460Z,37.72
2023-05-12T17:47:46.445Z,38.40
2023-05-12T17:50:16.273Z,38.82
2023-05-12T17:52:44.734Z,38.85
2023-05-12T17:55:13.335Z,39.43
2023-05-12T17:57:42.070Z,39.95
2023-05-12T18:00:12.128Z,40.50
2023-05-12T18:02:43.685Z,40.33
2023-05-12T18:05:13.939Z,41.26
2023-05-12T18:07:42.260Z,41.46
2023-05-12T18:10:11.638Z,42.12
2023-05-12T18:12:40.819Z,42.31
2023-05-12T18:15:11.047Z,42.79
2023-05-12T18:17:39.863Z,43.38
2023-05-12T18:20:10.098Z,44.06
2023-05-12T18:22:40.028Z,43.67
2023-05-12T18:25:11.110Z,44.48
2023-05-12T18:27:40.402Z,44.63
2023-05-12T18:30:10.070Z,45.73
2023-05-12T18:32:39.321Z,45.42
2023-05-12T18:35:09.608Z,45.86
2023-05-12T18:37:39.633Z,45.85
2023-05-12T18:40:09.925Z,46.41
2023-05-12T18:42:39.404Z,47.50
2023-05-12T18:45:09.437Z,47.80
2023-05-12T18:47:38.952Z,48.54
2023-05-12T18:50:08.741Z,48.77
2023-05-12T18:52:37.495Z,48.52
2023-05-12T18:55:09.427Z,49.31
2023-05-12T18:57:38.593Z,49.60
2023-05-12T19:00:10.135Z,50.16
2023-05-12T19:02:39.124Z,51.74
2023-05-12T19:05:08.617Z,51.14
2023-05-12T19:07:37.292Z,52.59
2023-05-12T19:10:10.092Z,52.62
2023-05-12T19:12:39.216Z,52.73
2023-05-12T19:15:09.299Z,53.64
2023-05-12T19:17:38.371Z,54.02
2023-05-12T19:20:09.021Z,54.35
2023-05-12T19:22:37.653Z,55.71
2023-05-12T19:25:10.440Z,56.18
2023-05-12T19:27:39.801Z,57.27
2023-05-12T19:30:09.771Z,57.32
2023-05-12T19:32:42.642Z,57.64
2023-05-12T19:35:12.202Z,57.96
2023-05-12T19:37:41.078Z,59.48
2023-05-12T19:40:12.193Z,59.49
2023-05-12T19:42:42.521Z,60.18
2023-05-12T19:45:11.902Z,60.54
2023-05-12T19:47:41.138Z,61.64
2023-05-12T19:50:11.409Z,62.19
2023-05-12T19:52:40.454Z,64.18
2023-05-12T19:55:11.626Z,63.25
2023-05-12T19:57:40.633Z,63.89
2023-05-12T20:00:11.097Z,63.43
2023-05-12T20:02:44.050Z,63.88
2023-05-12T20:05:13.347Z,65.83
2023-05-12T20:07:42.046Z,66.84
2023-05-12T20:10:13.102Z,66.61
2023-05-12T20:12:42.197Z,67.23
2023-05-12T20:15:12.170Z,68.03
2023-05-12T20:17:41.225Z,67.18
2023-05-12T20:20:12.433Z,67.62
2023-05-12T20:22:40.926Z,69.28
2023-05-12T20:25:12.508Z,67.61
2023-05-12T20:27:43.216Z,68.61
2023-05-12T20:30:13.408Z,68.47
2023-05-12T20:32:43.909Z,69.30
2023-05-12T20:35:13.200Z,70.34
2023-05-12T20:37:43.810Z,70.17
2023-05-12T20:40:14.969Z,71.35
2023-05-12T20:42:46.850Z,72.36
2023-05-12T20:45:16.579Z,72.65
2023-05-12T20:47:45.802Z,73.48
2023-05-12T20:50:14.810Z,74.35
2023-05-12T20:52:43.450Z,74.18
2023-05-12T20:55:12.355Z,74.98
2023-05-12T20:57:41.519Z,76.44
2023-05-12T21:00:13.792Z,76.56
2023-05-12T21:02:42.951Z,76.69
2023-05-12T21:05:11.968Z,77.87
2023-05-12T21:07:40.952Z,77.67
2023-05-12T21:10:10.619Z,78.51
2023-05-12T21:12:39.726Z,78.72
2023-05-12T21:15:13.031Z,78.04
2023-05-12T21:17:42.472Z,79.85
2023-05-12T21:20:12.653Z,78.82
2023-05-12T21:22:41.788Z,79.94
2023-05-12T21:25:11.425Z,79.86
2023-05-12T21:27:42.092Z,79.75
2023-05-12T21:30:13.142Z,80.20
2023-05-12T21:32:42.218Z,80.82
2023-05-12T21:35:11.296Z,81.08
2023-05-12T21:37:39.812Z,80.55
2023-05-12T21:40:10.044Z,80.52
2023-05-12T21:42:39.096Z,80.53
2023-05-12T21:45:09.254Z,81.89
2023-05-12T21:47:39.900Z,81.45
2023-05-12T21:50:08.721Z,82.19
2023-05-12T21:52:37.145Z,80.74
2023-05-12T21:55:06.621Z,82.66
2023-05-12T21:57:35.914Z,82.78
2023-05-12T22:00:05.687Z,82.38
2023-05-12T22:02:39.748Z,82.37
2023-05-12T22:05:09.126Z,82.58
2023-05-12T22:07:37.586Z,83.93
2023-05-12T22:10:07.287Z,83.47
2023-05-12T22:12:38.842Z,83.93
2023-05-12T22:15:09.211Z,84.12
2023-05-12T22:17:39.577Z,84.57
2023-05-12T22:20:10.424Z,83.44
2023-05-12T22:22:39.045Z,84.34
2023-05-12T22:25:09.096Z,84.40
2023-05-12T22:27:38.475Z,84.51
2023-05-12T22:30:10.202Z,84.70
2023-05-12T22:32:40.535Z,85.77
2023-05-12T22:35:09.766Z,85.56
2023-05-12T22:37:38.319Z,86.15
2023-05-12T22:40:08.815Z,86.57
2023-05-12T22:42:37.438Z,87.58
2023-05-12T22:45:07.271Z,88.35
2023-05-12T22:47:36.338Z,89.26
2023-05-12T22:50:07.877Z,88.71
2023-05-12T22:52:36.455Z,89.20
2023-05-12T22:55:05.814Z,89.24
2023-05-12T22:57:34.806Z,89.51
2023-05-12T23:00:03.877Z,89.28
2023-05-12T23:02:32.912Z,88.96
2023-05-12T23:05:01.802Z,88.94
2023-05-12T23:07:31.827Z,90.62
2023-05-12T23:10:00.520Z,91.56
2023-05-12T23:12:29.584Z,93.23
2023-05-12T23:14:58.699Z,94.80
2023-05-12T23:17:27.790Z,94.07
2023-05-12T23:19:56.613Z,94.20
2023-05-12T23:22:25.660Z,94.53
2023-05-12T23:24:57.624Z,95.20
2023-05-12T23:27:26.950Z,94.96
2023-05-12T23:29:55.934Z,94.60
2023-05-12T23:32:25.279Z,95.54
2023-05-12T23:34:53.948Z,96.19
2023-05-12T23:37:24.578Z,97.76
2023-05-12T23:39:53.578Z,97.88
2023-05-12T23:42:23.872Z,98.86
2023-05-12T23:44:52.915Z,99.15
2023-05-12T23:47:21.866Z,99.55
2023-05-12T23:49:50.391Z,99.54
2023-05-12T23:52:19.334Z,100.00
2023-05-12T23:54:48.261Z,100.00
2023-05-12T23:57:17.293Z,100.00
2023-05-12T23:59:47.704Z,100.00
